sensor_id;sensor_type;location;lat;lon;timestamp;pressure;altitude;pressure_sealevel;temperature;humidity
78741;BME280;68062;48.726;9.370;2023-07-31T00:01:01;98842.56;;;13.21;100.00
78741;BME280;68062;48.726;9.370;2023-07-31T00:03:27;98840.22;;;12.98;100.00
78741;BME280;68062;48.726;9.370;2023-07-31T00:05:54;98835.94;;;12.93;100.00
78741;BME280;68062;48.726;9.370;2023-07-31T00:08:20;98840.00;;;13.18;100.00
78741;BME280;68062;48.726;9.370;2023-07-31T00:10:47;98839.25;;;13.08;100.00
78741;BME280;68062;48.726;9.370;2023-07-31T00:13:13;98831.75;;;12.85;100.00
78741;BME280;68062;48.726;9.370;2023-07-31T00:15:41;98835.84;;;13.03;100.00
78741;BME280;68062;48.726;9.370;2023-07-31T00:18:08;98838.34;;;13.12;100.00
78741;BME280;68062;48.726;9.370;2023-07-31T00:20:34;98835.03;;;12.99;100.00
78741;BME280;68062;48.726;9.370;2023-07-31T00:23:01;98832.50;;;12.96;100.00
78741;BME280;68062;48.726;9.370;2023-07-31T00:25:27;98841.00;;;13.04;100.00
78741;BME280;68062;48.726;9.370;2023-07-31T00:27:54;98844.53;;;12.95;100.00
78741;BME280;68062;48.726;9.370;2023-07-31T00:30:20;98834.19;;;12.95;100.00
78741;BME280;68062;48.726;9.370;2023-07-31T00:32:49;98839.38;;;12.95;100.00
78741;BME280;68062;48.726;9.370;2023-07-31T00:35:15;98835.41;;;12.62;100.00
78741;BME280;68062;48.726;9.370;2023-07-31T00:37:42;98832.09;;;12.43;100.00
78741;BME280;68062;48.726;9.370;2023-07-31T00:40:08;98830.41;;;12.39;100.00
78741;BME280;68062;48.726;9.370;2023-07-31T00:42:35;98831.25;;;12.44;100.00
78741;BME280;68062;48.726;9.370;2023-07-31T00:45:02;98836.41;;;12.45;100.00
78741;BME280;68062;48.726;9.370;2023-07-31T00:47:29;98831.25;;;12.45;100.00
78741;BME280;68062;48.726;9.370;2023-07-31T00:49:57;98828.50;;;12.62;100.00
78741;BME280;68062;48.726;9.370;2023-07-31T00:52:24;98835.53;;;12.45;100.00
78741;BME280;68062;48.726;9.370;2023-07-31T00:54:51;98824.66;;;12.07;100.00
78741;BME280;68062;48.726;9.370;2023-07-31T00:57:17;98830.69;;;11.95;100.00
78741;BME280;68062;48.726;9.370;2023-07-31T00:59:44;98819.50;;;12.07;100.00
78741;BME280;68062;48.726;9.370;2023-07-31T01:02:11;98817.81;;;12.00;100.00
78741;BME280;68062;48.726;9.370;2023-07-31T01:04:38;98817.03;;;11.87;100.00
78741;BME280;68062;48.726;9.370;2023-07-31T01:07:11;98817.84;;;11.90;100.00
78741;BME280;68062;48.726;9.370;2023-07-31T01:09:43;98814.34;;;12.02;100.00
78741;BME280;68062;48.726;9.370;2023-07-31T01:12:14;98818.75;;;11.83;100.00
78741;BME280;68062;48.726;9.370;2023-07-31T01:14:50;98825.69;;;11.75;100.00
78741;BME280;68062;48.726;9.370;2023-07-31T01:17:17;98818.75;;;11.83;100.00
78741;BME280;68062;48.726;9.370;2023-07-31T01:19:44;98825.47;;;12.12;100.00
78741;BME280;68062;48.726;9.370;2023-07-31T01:22:42;98821.94;;;12.26;100.00
78741;BME280;68062;48.726;9.370;2023-07-31T01:25:26;98825.38;;;12.25;100.00
78741;BME280;68062;48.726;9.370;2023-07-31T01:28:02;98817.81;;;12.03;100.00
78741;BME280;68062;48.726;9.370;2023-07-31T01:30:32;98818.53;;;12.24;100.00
78741;BME280;68062;48.726;9.370;2023-07-31T01:33:02;98805.53;;;12.36;100.00
78741;BME280;68062;48.726;9.370;2023-07-31T01:35:32;98805.47;;;12.42;100.00
78741;BME280;68062;48.726;9.370;2023-07-31T01:37:59;98803.84;;;12.30;100.00
78741;BME280;68062;48.726;9.370;2023-07-31T01:40:25;98803.88;;;12.29;100.00
78741;BME280;68062;48.726;9.370;2023-07-31T01:42:52;98803.00;;;12.30;100.00
78741;BME280;68062;48.726;9.370;2023-07-31T01:45:19;98803.19;;;11.99;100.00
78741;BME280;68062;48.726;9.370;2023-07-31T01:47:46;98792.97;;;11.88;100.00
78741;BME280;68062;48.726;9.370;2023-07-31T01:50:13;98791.34;;;11.70;100.00
78741;BME280;68062;48.726;9.370;2023-07-31T01:52:39;98783.69;;;11.57;100.00
78741;BME280;68062;48.726;9.370;2023-07-31T01:55:08;98792.34;;;11.47;100.00
78741;BME280;68062;48.726;9.370;2023-07-31T01:57:36;98794.81;;;11.67;100.00
78741;BME280;68062;48.726;9.370;2023-07-31T02:00:04;98803.47;;;11.54;100.00
78741;BME280;68062;48.726;9.370;2023-07-31T02:02:38;98793.19;;;11.46;100.00
78741;BME280;68062;48.726;9.370;2023-07-31T02:05:05;98798.38;;;11.44;100.00
78741;BME280;68062;48.726;9.370;2023-07-31T02:07:32;98799.28;;;11.29;100.00
78741;BME280;68062;48.726;9.370;2023-07-31T02:09:59;98788.09;;;11.41;100.00
78741;BME280;68062;48.726;9.370;2023-07-31T02:12:25;98790.44;;;11.82;100.00
78741;BME280;68062;48.726;9.370;2023-07-31T02:14:52;98799.16;;;11.54;100.00
78741;BME280;68062;48.726;9.370;2023-07-31T02:17:18;98786.19;;;11.73;100.00
78741;BME280;68062;48.726;9.370;2023-07-31T02:19:47;98788.03;;;11.49;100.00
78741;BME280;68062;48.726;9.370;2023-07-31T02:22:14;98786.38;;;11.40;100.00
78741;BME280;68062;48.726;9.370;2023-07-31T02:24:40;98785.53;;;11.37;100.00
78741;BME280;68062;48.726;9.370;2023-07-31T02:27:07;98768.41;;;11.26;100.00
78741;BME280;68062;48.726;9.370;2023-07-31T02:29:33;98770.81;;;11.57;100.00
78741;BME280;68062;48.726;9.370;2023-07-31T02:32:00;98764.00;;;11.52;100.00
78741;BME280;68062;48.726;9.370;2023-07-31T02:34:27;98764.03;;;11.45;100.00
78741;BME280;68062;48.726;9.370;2023-07-31T02:36:55;98759.75;;;11.41;100.00
78741;BME280;68062;48.726;9.370;2023-07-31T02:39:21;98766.66;;;11.34;100.00
78741;BME280;68062;48.726;9.370;2023-07-31T02:41:48;98766.63;;;11.39;100.00
78741;BME280;68062;48.726;9.370;2023-07-31T02:44:14;98760.63;;;11.36;100.00
78741;BME280;68062;48.726;9.370;2023-07-31T02:46:41;98767.47;;;11.43;100.00
78741;BME280;68062;48.726;9.370;2023-07-31T02:49:07;98765.63;;;11.68;100.00
78741;BME280;68062;48.726;9.370;2023-07-31T02:51:34;98769.03;;;11.70;100.00
78741;BME280;68062;48.726;9.370;2023-07-31T02:54:02;98771.78;;;11.39;100.00
78741;BME280;68062;48.726;9.370;2023-07-31T02:56:28;98768.44;;;11.14;100.00
78741;BME280;68062;48.726;9.370;2023-07-31T02:58:55;98757.25;;;11.26;100.00
78741;BME280;68062;48.726;9.370;2023-07-31T03:01:21;98754.59;;;11.43;100.00
78741;BME280;68062;48.726;9.370;2023-07-31T03:03:48;98752.00;;;11.51;100.00
78741;BME280;68062;48.726;9.370;2023-07-31T03:06:14;98756.28;;;11.48;100.00
78741;BME280;68062;48.726;9.370;2023-07-31T03:08:41;98749.53;;;11.29;100.00
78741;BME280;68062;48.726;9.370;2023-07-31T03:11:09;98744.44;;;11.12;100.00
78741;BME280;68062;48.726;9.370;2023-07-31T03:13:35;98741.84;;;11.19;100.00
78741;BME280;68062;48.726;9.370;2023-07-31T03:16:56;58983.28;;;-145.99;100.00
78741;BME280;68062;48.726;9.370;2023-07-31T03:20:21;58983.28;;;-145.99;100.00
78741;BME280;68062;48.726;9.370;2023-07-31T03:23:46;58983.28;;;-145.99;100.00
78741;BME280;68062;48.726;9.370;2023-07-31T03:26:55;98741.84;;;11.19;100.00
78741;BME280;68062;48.726;9.370;2023-07-31T03:30:15;58983.28;;;-145.99;90.91
78741;BME280;68062;48.726;9.370;2023-07-31T03:32:42;98741.84;;;11.19;100.00
78741;BME280;68062;48.726;9.370;2023-07-31T03:35:21;98741.84;;;11.19;100.00
78741;BME280;68062;48.726;9.370;2023-07-31T03:37:52;98741.84;;;11.19;100.00
78741;BME280;68062;48.726;9.370;2023-07-31T03:40:21;98741.84;;;11.19;100.00
78741;BME280;68062;48.726;9.370;2023-07-31T03:42:50;98752.22;;;10.98;100.00
78741;BME280;68062;48.726;9.370;2023-07-31T03:45:16;98749.63;;;11.02;100.00
78741;BME280;68062;48.726;9.370;2023-07-31T03:47:43;98754.72;;;11.23;100.00
78741;BME280;68062;48.726;9.370;2023-07-31T03:50:09;98759.03;;;11.10;100.00
78741;BME280;68062;48.726;9.370;2023-07-31T03:52:36;98757.34;;;11.04;100.00
78741;BME280;68062;48.726;9.370;2023-07-31T03:55:03;98760.81;;;10.95;100.00
78741;BME280;68062;48.726;9.370;2023-07-31T03:57:29;98768.53;;;10.94;100.00
78741;BME280;68062;48.726;9.370;2023-07-31T03:59:59;98767.56;;;11.18;100.00
78741;BME280;68062;48.726;9.370;2023-07-31T04:02:25;98760.66;;;11.34;100.00
78741;BME280;68062;48.726;9.370;2023-07-31T04:04:52;98758.97;;;11.30;100.00
78741;BME280;68062;48.726;9.370;2023-07-31T04:07:18;98764.13;;;11.25;100.00
78741;BME280;68062;48.726;9.370;2023-07-31T04:09:45;98760.72;;;11.18;100.00
78741;BME280;68062;48.726;9.370;2023-07-31T04:12:11;98765.84;;;11.23;100.00
78741;BME280;68062;48.726;9.370;2023-07-31T04:14:38;98770.97;;;11.26;100.00
78741;BME280;68062;48.726;9.370;2023-07-31T04:17:06;98767.31;;;11.68;100.00
78741;BME280;68062;48.726;9.370;2023-07-31T04:19:32;98765.56;;;11.73;100.00
78741;BME280;68062;48.726;9.370;2023-07-31T04:21:59;98765.53;;;11.81;100.00
78741;BME280;68062;48.726;9.370;2023-07-31T04:24:25;98761.25;;;11.80;100.00
78741;BME280;68062;48.726;9.370;2023-07-31T04:26:52;98745.63;;;12.01;100.00
78741;BME280;68062;48.726;9.370;2023-07-31T04:29:19;98739.47;;;12.21;100.00
78741;BME280;68062;48.726;9.370;2023-07-31T04:31:47;98744.66;;;12.19;100.00
78741;BME280;68062;48.726;9.370;2023-07-31T04:34:15;98747.31;;;12.05;100.00
78741;BME280;68062;48.726;9.370;2023-07-31T04:36:42;98740.41;;;12.11;100.00
78741;BME280;68062;48.726;9.370;2023-07-31T04:39:08;98741.13;;;12.30;100.00
78741;BME280;68062;48.726;9.370;2023-07-31T04:41:35;98741.09;;;12.33;100.00
78741;BME280;68062;48.726;9.370;2023-07-31T04:44:01;98727.38;;;12.26;100.00
78741;BME280;68062;48.726;9.370;2023-07-31T04:46:28;98741.19;;;12.20;100.00
78741;BME280;68062;48.726;9.370;2023-07-31T04:48:55;98738.66;;;12.17;100.00
78741;BME280;68062;48.726;9.370;2023-07-31T04:51:23;98736.03;;;12.20;100.00
78741;BME280;68062;48.726;9.370;2023-07-31T04:53:50;98741.16;;;12.22;100.00
78741;BME280;68062;48.726;9.370;2023-07-31T04:56:17;98747.06;;;12.36;100.00
78741;BME280;68062;48.726;9.370;2023-07-31T04:58:43;98748.59;;;12.56;100.00
78741;BME280;68062;48.726;9.370;2023-07-31T05:01:10;98737.16;;;12.79;100.00
78741;BME280;68062;48.726;9.370;2023-07-31T05:03:36;98742.81;;;13.12;100.00
78741;BME280;68062;48.726;9.370;2023-07-31T05:06:03;98732.22;;;13.31;100.00
78741;BME280;68062;48.726;9.370;2023-07-31T05:08:30;98727.00;;;13.37;100.00
78741;BME280;68062;48.726;9.370;2023-07-31T05:10:57;98728.66;;;13.44;100.00
78741;BME280;68062;48.726;9.370;2023-07-31T05:13:23;98729.63;;;13.34;100.00
78741;BME280;68062;48.726;9.370;2023-07-31T05:15:50;98731.22;;;13.44;100.00
78741;BME280;68062;48.726;9.370;2023-07-31T05:18:16;98731.22;;;13.41;100.00
78741;BME280;68062;48.726;9.370;2023-07-31T05:20:43;98740.69;;;13.40;100.00
78741;BME280;68062;48.726;9.370;2023-07-31T05:23:09;98739.22;;;13.24;100.00
78741;BME280;68062;48.726;9.370;2023-07-31T05:25:37;98731.00;;;13.58;100.00
78741;BME280;68062;48.726;9.370;2023-07-31T05:28:04;98726.44;;;13.76;100.00
78741;BME280;68062;48.726;9.370;2023-07-31T05:30:30;98730.72;;;13.78;100.00
78741;BME280;68062;48.726;9.370;2023-07-31T05:32:57;98729.84;;;13.78;100.00
78741;BME280;68062;48.726;9.370;2023-07-31T05:35:24;98734.06;;;13.85;100.00
78741;BME280;68062;48.726;9.370;2023-07-31T05:37:50;98740.09;;;13.86;100.00
78741;BME280;68062;48.726;9.370;2023-07-31T05:40:17;98738.34;;;13.86;100.00
78741;BME280;68062;48.726;9.370;2023-07-31T05:42:44;98738.00;;;14.08;100.00
78741;BME280;68062;48.726;9.370;2023-07-31T05:45:11;98736.41;;;14.01;100.00
78741;BME280;68062;48.726;9.370;2023-07-31T05:47:38;98724.75;;;14.26;100.00
78741;BME280;68062;48.726;9.370;2023-07-31T05:50:05;98733.00;;;14.49;100.00
78741;BME280;68062;48.726;9.370;2023-07-31T05:52:32;98735.28;;;14.66;98.23
78741;BME280;68062;48.726;9.370;2023-07-31T05:54:58;98731.66;;;14.76;96.84
78741;BME280;68062;48.726;9.370;2023-07-31T05:57:25;98733.91;;;14.93;94.84
78741;BME280;68062;48.726;9.370;2023-07-31T05:59:53;98738.56;;;15.20;93.79
78741;BME280;68062;48.726;9.370;2023-07-31T06:02:19;98726.66;;;15.50;92.21
78741;BME280;68062;48.726;9.370;2023-07-31T06:04:46;98677.41;;;15.50;88.64
78741;BME280;68062;48.726;9.370;2023-07-31T06:07:12;98717.09;;;15.92;88.00
78741;BME280;68062;48.726;9.370;2023-07-31T06:09:39;98714.13;;;16.07;87.94
78741;BME280;68062;48.726;9.370;2023-07-31T06:12:06;98715.50;;;16.21;86.62
78741;BME280;68062;48.726;9.370;2023-07-31T06:14:32;98712.44;;;16.04;86.93
78741;BME280;68062;48.726;9.370;2023-07-31T06:17:00;98709.28;;;16.26;84.82
78741;BME280;68062;48.726;9.370;2023-07-31T06:19:27;98716.00;;;16.35;83.32
78741;BME280;68062;48.726;9.370;2023-07-31T06:21:53;98714.66;;;16.53;82.43
78741;BME280;68062;48.726;9.370;2023-07-31T06:24:20;98712.59;;;16.66;81.58
78741;BME280;68062;48.726;9.370;2023-07-31T06:26:47;98712.28;;;16.77;81.12
78741;BME280;68062;48.726;9.370;2023-07-31T06:29:13;98715.75;;;16.77;80.68
78741;BME280;68062;48.726;9.370;2023-07-31T06:31:40;98707.91;;;17.11;80.00
78741;BME280;68062;48.726;9.370;2023-07-31T06:34:08;98701.56;;;17.19;79.06
78741;BME280;68062;48.726;9.370;2023-07-31T06:36:35;98708.19;;;17.01;78.90
78741;BME280;68062;48.726;9.370;2023-07-31T06:39:01;98707.09;;;17.09;79.43
78741;BME280;68062;48.726;9.370;2023-07-31T06:41:29;98717.88;;;17.25;79.00
78741;BME280;68062;48.726;9.370;2023-07-31T06:43:55;98716.78;;;17.32;78.31
78741;BME280;68062;48.726;9.370;2023-07-31T06:46:22;98716.75;;;17.62;76.90
78741;BME280;68062;48.726;9.370;2023-07-31T06:48:48;98719.00;;;17.73;77.57
78741;BME280;68062;48.726;9.370;2023-07-31T06:51:16;98716.16;;;17.80;78.12
78741;BME280;68062;48.726;9.370;2023-07-31T06:53:42;98705.84;;;18.31;75.39
78741;BME280;68062;48.726;9.370;2023-07-31T06:56:10;98703.28;;;18.30;75.51
78741;BME280;68062;48.726;9.370;2023-07-31T06:58:37;98703.56;;;18.47;74.68
78741;BME280;68062;48.726;9.370;2023-07-31T07:01:03;98696.00;;;18.65;75.41
78741;BME280;68062;48.726;9.370;2023-07-31T07:03:30;98701.78;;;19.21;72.83
78741;BME280;68062;48.726;9.370;2023-07-31T07:05:57;98699.44;;;19.59;70.78
78741;BME280;68062;48.726;9.370;2023-07-31T07:08:25;98694.16;;;20.45;68.54
78741;BME280;68062;48.726;9.370;2023-07-31T07:10:52;98694.81;;;21.48;64.97
78741;BME280;68062;48.726;9.370;2023-07-31T07:13:19;98694.53;;;21.35;63.65
78741;BME280;68062;48.726;9.370;2023-07-31T07:15:47;98685.25;;;22.01;61.25
78741;BME280;68062;48.726;9.370;2023-07-31T07:18:14;98697.41;;;21.67;61.20
78741;BME280;68062;48.726;9.370;2023-07-31T07:20:45;98688.88;;;21.63;62.81
78741;BME280;68062;48.726;9.370;2023-07-31T07:23:12;98680.72;;;21.13;64.54
78741;BME280;68062;48.726;9.370;2023-07-31T07:25:40;98696.81;;;21.04;63.18
78741;BME280;68062;48.726;9.370;2023-07-31T07:28:06;98686.13;;;21.28;61.31
78741;BME280;68062;48.726;9.370;2023-07-31T07:30:33;98677.63;;;20.86;59.57
78741;BME280;68062;48.726;9.370;2023-07-31T07:33:00;98674.56;;;22.05;56.74
78741;BME280;68062;48.726;9.370;2023-07-31T07:35:26;98672.47;;;22.30;54.02
78741;BME280;68062;48.726;9.370;2023-07-31T07:37:53;98669.22;;;22.76;53.64
78741;BME280;68062;48.726;9.370;2023-07-31T07:40:20;98667.69;;;22.20;53.07
78741;BME280;68062;48.726;9.370;2023-07-31T07:42:48;98660.81;;;21.48;54.88
78741;BME280;68062;48.726;9.370;2023-07-31T07:45:14;98666.28;;;21.24;55.77
78741;BME280;68062;48.726;9.370;2023-07-31T07:47:41;98667.16;;;21.05;58.80
78741;BME280;68062;48.726;9.370;2023-07-31T07:50:08;98653.06;;;21.27;58.19
78741;BME280;68062;48.726;9.370;2023-07-31T07:52:35;98654.34;;;21.55;56.53
78741;BME280;68062;48.726;9.370;2023-07-31T07:55:01;98654.66;;;21.49;55.36
78741;BME280;68062;48.726;9.370;2023-07-31T07:57:28;98652.19;;;21.26;56.13
78741;BME280;68062;48.726;9.370;2023-07-31T07:59:56;98658.53;;;21.03;56.09
78741;BME280;68062;48.726;9.370;2023-07-31T08:02:23;98656.06;;;21.19;57.65
78741;BME280;68062;48.726;9.370;2023-07-31T08:04:49;98665.59;;;21.38;54.80
78741;BME280;68062;48.726;9.370;2023-07-31T08:07:16;98666.00;;;21.67;54.66
78741;BME280;68062;48.726;9.370;2023-07-31T08:09:42;98655.41;;;21.51;54.79
78741;BME280;68062;48.726;9.370;2023-07-31T08:12:09;98657.91;;;22.24;54.36
78741;BME280;68062;48.726;9.370;2023-07-31T08:14:35;98655.81;;;22.48;52.62
78741;BME280;68062;48.726;9.370;2023-07-31T08:17:03;98645.44;;;22.47;51.70
78741;BME280;68062;48.726;9.370;2023-07-31T08:19:30;98642.53;;;22.18;54.26
78741;BME280;68062;48.726;9.370;2023-07-31T08:21:57;98636.25;;;23.20;50.92
78741;BME280;68062;48.726;9.370;2023-07-31T08:24:23;98640.31;;;23.72;49.90
78741;BME280;68062;48.726;9.370;2023-07-31T08:26:50;98640.22;;;23.43;50.92
78741;BME280;68062;48.726;9.370;2023-07-31T08:29:16;98630.88;;;24.29;48.12
78741;BME280;68062;48.726;9.370;2023-07-31T08:31:43;98631.16;;;24.24;48.20
78741;BME280;68062;48.726;9.370;2023-07-31T08:34:11;98635.75;;;24.21;47.18
78741;BME280;68062;48.726;9.370;2023-07-31T08:36:37;98626.78;;;23.64;48.66
78741;BME280;68062;48.726;9.370;2023-07-31T08:39:04;98628.63;;;24.23;46.70
78741;BME280;68062;48.726;9.370;2023-07-31T08:41:30;98626.63;;;24.70;46.55
78741;BME280;68062;48.726;9.370;2023-07-31T08:43:57;98625.31;;;24.63;45.57
78741;BME280;68062;48.726;9.370;2023-07-31T08:46:25;98624.59;;;24.46;47.00
78741;BME280;68062;48.726;9.370;2023-07-31T08:48:52;98611.38;;;23.74;47.73
78741;BME280;68062;48.726;9.370;2023-07-31T08:51:21;98607.69;;;24.36;45.22
78741;BME280;68062;48.726;9.370;2023-07-31T08:53:47;98602.16;;;24.12;45.56
78741;BME280;68062;48.726;9.370;2023-07-31T08:56:15;98582.53;;;24.46;45.41
78741;BME280;68062;48.726;9.370;2023-07-31T08:58:43;98594.63;;;25.33;44.44
78741;BME280;68062;48.726;9.370;2023-07-31T09:01:10;98592.09;;;25.59;43.75
78741;BME280;68062;48.726;9.370;2023-07-31T09:03:38;98591.09;;;25.06;43.65
78741;BME280;68062;48.726;9.370;2023-07-31T09:06:06;98604.44;;;23.87;46.11
78741;BME280;68062;48.726;9.370;2023-07-31T09:08:34;98598.13;;;24.20;47.15
78741;BME280;68062;48.726;9.370;2023-07-31T09:11:02;98582.47;;;24.19;45.78
78741;BME280;68062;48.726;9.370;2023-07-31T09:13:31;98580.44;;;25.35;44.97
78741;BME280;68062;48.726;9.370;2023-07-31T09:15:57;98580.09;;;24.14;46.51
78741;BME280;68062;48.726;9.370;2023-07-31T09:18:24;98573.88;;;24.59;44.93
78741;BME280;68062;48.726;9.370;2023-07-31T09:21:03;98585.91;;;24.05;45.29
78741;BME280;68062;48.726;9.370;2023-07-31T09:23:41;98553.47;;;24.20;45.22
78741;BME280;68062;48.726;9.370;2023-07-31T09:26:08;98571.66;;;24.38;44.89
78741;BME280;68062;48.726;9.370;2023-07-31T09:28:35;98573.84;;;24.88;44.44
78741;BME280;68062;48.726;9.370;2023-07-31T09:31:01;98577.56;;;25.25;44.56
78741;BME280;68062;48.726;9.370;2023-07-31T09:33:28;98572.13;;;25.01;45.33
78741;BME280;68062;48.726;9.370;2023-07-31T09:35:58;98581.56;;;25.59;43.58
78741;BME280;68062;48.726;9.370;2023-07-31T09:38:25;98572.97;;;25.69;43.87
78741;BME280;68062;48.726;9.370;2023-07-31T09:40:53;98574.78;;;24.01;45.91
78741;BME280;68062;48.726;9.370;2023-07-31T09:43:21;98572.34;;;23.68;46.44
78741;BME280;68062;48.726;9.370;2023-07-31T09:45:48;98562.22;;;24.21;45.88
78741;BME280;68062;48.726;9.370;2023-07-31T09:48:16;98553.22;;;24.67;45.57
78741;BME280;68062;48.726;9.370;2023-07-31T09:50:44;98530.31;;;25.37;43.90
78741;BME280;68062;48.726;9.370;2023-07-31T09:53:10;98556.94;;;24.06;46.03
78741;BME280;68062;48.726;9.370;2023-07-31T09:55:37;98552.75;;;23.28;48.63
78741;BME280;68062;48.726;9.370;2023-07-31T09:58:08;98536.56;;;23.81;47.01
78741;BME280;68062;48.726;9.370;2023-07-31T10:00:35;98530.47;;;23.95;47.25
78741;BME280;68062;48.726;9.370;2023-07-31T10:03:05;98521.84;;;24.36;45.27
78741;BME280;68062;48.726;9.370;2023-07-31T10:05:35;98522.88;;;24.90;44.17
78741;BME280;68062;48.726;9.370;2023-07-31T10:08:03;98509.63;;;25.45;43.81
78741;BME280;68062;48.726;9.370;2023-07-31T10:10:31;98520.81;;;26.00;43.03
78741;BME280;68062;48.726;9.370;2023-07-31T10:12:59;98523.66;;;25.18;42.85
78741;BME280;68062;48.726;9.370;2023-07-31T10:15:28;98509.81;;;24.47;45.52
78741;BME280;68062;48.726;9.370;2023-07-31T10:17:56;98501.97;;;25.02;44.38
78741;BME280;68062;48.726;9.370;2023-07-31T10:20:24;98487.44;;;25.88;42.74
78741;BME280;68062;48.726;9.370;2023-07-31T10:22:54;98494.75;;;25.44;44.50
78741;BME280;68062;48.726;9.370;2023-07-31T10:25:21;98497.06;;;25.23;43.89
78741;BME280;68062;48.726;9.370;2023-07-31T10:27:49;98493.06;;;24.62;44.96
78741;BME280;68062;48.726;9.370;2023-07-31T10:30:19;98497.38;;;24.07;46.56
78741;BME280;68062;48.726;9.370;2023-07-31T10:32:48;98500.56;;;24.96;44.03
78741;BME280;68062;48.726;9.370;2023-07-31T10:35:16;98500.94;;;24.62;45.11
78741;BME280;68062;48.726;9.370;2023-07-31T10:37:43;98486.31;;;25.39;44.14
78741;BME280;68062;48.726;9.370;2023-07-31T10:40:13;98483.88;;;24.55;45.54
78741;BME280;68062;48.726;9.370;2023-07-31T10:42:46;98478.50;;;24.29;45.98
78741;BME280;68062;48.726;9.370;2023-07-31T10:45:24;98462.25;;;25.71;43.17
78741;BME280;68062;48.726;9.370;2023-07-31T10:47:58;98464.53;;;25.37;43.71
78741;BME280;68062;48.726;9.370;2023-07-31T10:50:26;98471.88;;;25.06;45.44
78741;BME280;68062;48.726;9.370;2023-07-31T10:52:54;98469.94;;;24.40;46.67
78741;BME280;68062;48.726;9.370;2023-07-31T10:55:29;98468.00;;;24.29;45.39
78741;BME280;68062;48.726;9.370;2023-07-31T10:57:57;98471.75;;;24.25;46.46
78741;BME280;68062;48.726;9.370;2023-07-31T11:00:26;98475.38;;;25.32;45.09
78741;BME280;68062;48.726;9.370;2023-07-31T11:02:59;98470.66;;;25.37;44.35
78741;BME280;68062;48.726;9.370;2023-07-31T11:05:43;98468.09;;;24.13;46.45
78741;BME280;68062;48.726;9.370;2023-07-31T11:08:15;98458.16;;;23.89;46.30
78741;BME280;68062;48.726;9.370;2023-07-31T11:10:43;98470.56;;;23.58;47.33
78741;BME280;68062;48.726;9.370;2023-07-31T11:13:11;98454.06;;;23.56;47.33
78741;BME280;68062;48.726;9.370;2023-07-31T11:15:38;98452.94;;;24.73;46.02
78741;BME280;68062;48.726;9.370;2023-07-31T11:18:06;98449.56;;;24.98;44.19
78741;BME280;68062;48.726;9.370;2023-07-31T11:20:34;98454.91;;;24.97;44.39
78741;BME280;68062;48.726;9.370;2023-07-31T11:23:02;98451.41;;;24.83;46.12
78741;BME280;68062;48.726;9.370;2023-07-31T11:25:29;98448.84;;;24.27;45.54
78741;BME280;68062;48.726;9.370;2023-07-31T11:27:57;98442.81;;;24.94;44.77
78741;BME280;68062;48.726;9.370;2023-07-31T11:30:23;98450.66;;;24.54;45.14
78741;BME280;68062;48.726;9.370;2023-07-31T11:32:50;98459.91;;;24.60;44.61
78741;BME280;68062;48.726;9.370;2023-07-31T11:35:18;98447.53;;;24.34;45.55
78741;BME280;68062;48.726;9.370;2023-07-31T11:37:45;98439.50;;;24.50;44.98
78741;BME280;68062;48.726;9.370;2023-07-31T11:40:12;98440.53;;;24.06;46.70
78741;BME280;68062;48.726;9.370;2023-07-31T11:42:40;98440.44;;;24.07;47.13
78741;BME280;68062;48.726;9.370;2023-07-31T11:45:08;98435.31;;;23.77;47.49
78741;BME280;68062;48.726;9.370;2023-07-31T11:47:35;98434.94;;;23.69;47.27
78741;BME280;68062;48.726;9.370;2023-07-31T11:50:03;98436.59;;;23.41;47.95
78741;BME280;68062;48.726;9.370;2023-07-31T11:52:37;98433.69;;;23.31;48.90
78741;BME280;68062;48.726;9.370;2023-07-31T11:55:08;98440.81;;;23.43;48.85
78741;BME280;68062;48.726;9.370;2023-07-31T11:57:37;98422.00;;;23.36;48.08
78741;BME280;68062;48.726;9.370;2023-07-31T12:00:06;98395.31;;;23.14;47.74
78741;BME280;68062;48.726;9.370;2023-07-31T12:02:33;98428.69;;;22.96;49.66
78741;BME280;68062;48.726;9.370;2023-07-31T12:05:01;98419.38;;;22.45;50.55
78741;BME280;68062;48.726;9.370;2023-07-31T12:07:44;98410.41;;;22.80;49.49
78741;BME280;68062;48.726;9.370;2023-07-31T12:10:11;98331.56;;;22.68;49.09
78741;BME280;68062;48.726;9.370;2023-07-31T12:12:37;98409.69;;;23.37;49.86
78741;BME280;68062;48.726;9.370;2023-07-31T12:15:14;98391.06;;;23.56;48.85
78741;BME280;68062;48.726;9.370;2023-07-31T12:17:40;98396.75;;;23.34;48.09
78741;BME280;68062;48.726;9.370;2023-07-31T12:20:08;98390.69;;;23.33;49.58
78741;BME280;68062;48.726;9.370;2023-07-31T12:22:35;98387.91;;;23.06;49.49
78741;BME280;68062;48.726;9.370;2023-07-31T12:25:04;98388.75;;;23.06;50.05
78741;BME280;68062;48.726;9.370;2023-07-31T12:27:33;98393.69;;;22.97;49.50
78741;BME280;68062;48.726;9.370;2023-07-31T12:29:59;98392.63;;;22.85;50.26
78741;BME280;68062;48.726;9.370;2023-07-31T12:32:30;98375.78;;;22.89;50.42
78741;BME280;68062;48.726;9.370;2023-07-31T12:34:59;98384.69;;;23.01;50.74
78741;BME280;68062;48.726;9.370;2023-07-31T12:37:26;98377.91;;;22.82;51.33
78741;BME280;68062;48.726;9.370;2023-07-31T12:39:53;98366.72;;;23.25;49.57
78741;BME280;68062;48.726;9.370;2023-07-31T12:42:20;98368.28;;;23.28;50.09
78741;BME280;68062;48.726;9.370;2023-07-31T12:44:47;98367.00;;;22.90;50.34
78741;BME280;68062;48.726;9.370;2023-07-31T12:47:14;98364.59;;;22.71;52.01
78741;BME280;68062;48.726;9.370;2023-07-31T12:49:41;98359.41;;;23.00;51.37
78741;BME280;68062;48.726;9.370;2023-07-31T12:52:07;98359.00;;;23.22;51.29
78741;BME280;68062;48.726;9.370;2023-07-31T12:54:34;98351.47;;;23.01;51.53
78741;BME280;68062;48.726;9.370;2023-07-31T12:57:00;98358.03;;;22.94;51.47
78741;BME280;68062;48.726;9.370;2023-07-31T12:59:28;98342.38;;;22.92;50.78
78741;BME280;68062;48.726;9.370;2023-07-31T13:01:55;98343.41;;;22.90;50.92